Time;durP1;ratioP1;P1;durP2;ratioP2;P2;SDS_P1;SDS_P2;PMS_P1;PMS_P2;Temp;Humidity;BMP_temperature;BMP_pressure;BME280_temperature;BME280_humidity;BME280_pressure;Samples;Min_cycle;Max_cycle;Signal;HPM_P1;HPM_P2
2022/12/29 00:00:39;;;;;;;2.00;1.30;;;27.50;51.30;;;;;;5004326;28;20560;-44
2022/12/29 00:03:10;;;;;;;1.13;0.90;;;27.60;51.50;;;;;;4996640;28;20224;-43
2022/12/29 00:05:42;;;;;;;2.05;1.10;;;27.60;51.60;;;;;;5003801;28;20685;-53
2022/12/29 00:08:13;;;;;;;1.55;0.95;;;27.70;51.80;;;;;;5001775;28;20196;-50
2022/12/29 00:10:44;;;;;;;1.85;1.02;;;27.70;51.90;;;;;;5002742;28;20196;-44
2022/12/29 00:16:01;;;;;;;3.03;1.30;;;27.80;51.90;;;;;;5010893;28;20254;-47
2022/12/29 00:18:32;;;;;;;3.38;1.58;;;27.80;51.50;;;;;;5012547;28;20207;-48
2022/12/29 00:35:25;;;;;;;2.90;1.52;;;28.20;51.30;;;;;;5002565;28;20284;-49
2022/12/29 00:46:19;;;;;;;2.85;1.20;;;28.40;52.10;;;;;;5003358;28;20234;-55
2022/12/29 00:51:36;;;;;;;2.65;1.45;;;28.50;52.10;;;;;;5000811;28;20217;-52
2022/12/29 00:54:09;;;;;;;1.90;1.10;;;28.50;52.10;;;;;;5000020;28;20193;-49
2022/12/29 00:56:40;;;;;;;1.98;1.15;;;28.50;52.10;;;;;;5002404;28;20188;-48
2022/12/29 00:59:12;;;;;;;1.88;1.30;;;28.60;52.10;;;;;;5003753;28;20206;-54
2022/12/29 01:01:43;;;;;;;3.38;1.27;;;28.60;52.00;;;;;;5000926;28;20209;-46
2022/12/29 01:04:14;;;;;;;2.95;1.33;;;28.70;52.20;;;;;;5011713;28;20225;-49
2022/12/29 01:06:45;;;;;;;2.40;1.13;;;28.70;52.00;;;;;;5007067;28;20205;-44
2022/12/29 01:12:05;;;;;;;2.25;1.30;;;28.80;52.00;;;;;;5004934;28;20614;-45
2022/12/29 01:14:37;;;;;;;2.83;1.33;;;28.90;52.80;;;;;;4993259;28;20205;-47
2022/12/29 01:17:07;;;;;;;1.70;1.15;;;28.90;52.10;;;;;;4991461;28;20208;-43
2022/12/29 01:19:38;;;;;;;2.72;1.13;;;28.90;52.30;;;;;;4991624;28;20205;-45
2022/12/29 01:22:09;;;;;;;2.40;1.25;;;29.00;52.40;;;;;;4991300;28;20218;-46
2022/12/29 01:24:41;;;;;;;1.48;1.27;;;29.00;52.50;;;;;;5006637;28;20224;-52
2022/12/29 01:27:12;;;;;;;2.08;1.20;;;29.10;52.60;;;;;;4992281;28;20669;-47
2022/12/29 01:29:43;;;;;;;2.70;1.20;;;29.10;52.60;;;;;;4993327;28;20220;-44
2022/12/29 01:32:14;;;;;;;3.03;1.38;;;29.20;52.50;;;;;;4991090;28;20228;-45
2022/12/29 01:34:45;;;;;;;1.52;1.13;;;29.20;52.50;;;;;;4991549;28;20208;-48
2022/12/29 01:37:16;;;;;;;2.47;1.40;;;29.20;52.30;;;;;;4991108;28;20201;-53
2022/12/29 01:39:48;;;;;;;2.35;1.38;;;29.30;52.40;;;;;;4991927;28;20197;-46
2022/12/29 01:42:20;;;;;;;2.20;1.13;;;29.30;52.50;;;;;;4998218;28;20584;-45
2022/12/29 01:45:02;;;;;;;1.80;1.50;;;29.40;52.50;;;;;;5010728;28;20600;-47
2022/12/29 01:47:39;;;;;;;1.88;1.10;;;29.40;52.50;;;;;;5007311;28;20189;-48
2022/12/29 01:50:15;;;;;;;5.07;1.23;;;29.50;52.50;;;;;;4998973;28;20189;-47
2022/12/29 01:52:53;;;;;;;1.40;1.15;;;29.50;52.50;;;;;;5001012;28;20274;-53
2022/12/29 01:55:26;;;;;;;1.83;1.13;;;29.60;52.70;;;;;;5002192;28;20200;-49
2022/12/29 01:58:00;;;;;;;1.75;1.20;;;29.60;52.70;;;;;;5000846;28;20197;-47
2022/12/29 02:00:31;;;;;;;2.05;1.20;;;29.60;52.90;;;;;;5003104;28;20220;-47
2022/12/29 02:03:02;;;;;;;3.25;1.20;;;29.70;52.90;;;;;;5000119;28;20209;-48
2022/12/29 02:05:39;;;;;;;1.85;1.30;;;29.70;52.90;;;;;;5001257;28;20220;-50
2022/12/29 02:08:11;;;;;;;1.98;1.13;;;29.70;52.70;;;;;;4998600;28;20839;-47
2022/12/29 02:10:45;;;;;;;1.75;1.10;;;29.80;52.70;;;;;;5002276;28;20201;-52
2022/12/29 02:13:18;;;;;;;1.65;1.10;;;29.90;52.90;;;;;;5000878;28;20189;-48
2022/12/29 02:16:07;;;;;;;2.28;1.30;;;29.90;52.80;;;;;;5000446;28;20185;-48
2022/12/29 02:18:46;;;;;;;1.52;1.20;;;30.00;52.70;;;;;;5000758;28;20204;-46
2022/12/29 02:21:48;;;;;;;2.60;1.02;;;30.00;52.90;;;;;;5001448;28;20217;-53
2022/12/29 02:24:54;;;;;;;1.73;1.10;;;30.10;52.60;;;;;;5000705;28;20189;-48
2022/12/29 02:27:51;;;;;;;2.33;1.13;;;30.10;52.40;;;;;;5000083;28;20203;-52
2022/12/29 02:30:42;;;;;;;2.88;1.05;;;30.20;52.60;;;;;;5000414;28;20208;-45
2022/12/29 02:33:23;;;;;;;1.77;1.08;;;30.20;52.80;;;;;;5000383;28;20210;-51
2022/12/29 02:36:01;;;;;;;1.65;1.15;;;30.30;52.80;;;;;;5000333;28;20189;-50
2022/12/29 02:38:52;;;;;;;2.08;1.30;;;30.30;52.80;;;;;;5009819;28;20239;-52
2022/12/29 02:41:28;;;;;;;1.67;1.10;;;30.40;52.80;;;;;;5009710;28;20236;-58
2022/12/29 02:44:09;;;;;;;2.13;1.30;;;30.40;52.90;;;;;;4990556;28;20204;-63
2022/12/29 02:46:48;;;;;;;3.40;1.17;;;30.50;50.30;;;;;;4991133;28;20260;-57
2022/12/29 02:49:26;;;;;;;4.30;1.48;;;30.50;48.60;;;;;;4991532;28;20584;-51
2022/12/29 02:52:02;;;;;;;4.65;1.30;;;30.50;48.70;;;;;;4991045;28;20225;-53
2022/12/29 02:54:41;;;;;;;3.40;1.23;;;30.60;48.60;;;;;;4990327;28;20209;-56
2022/12/29 02:57:15;;;;;;;2.13;1.30;;;30.60;48.90;;;;;;4991080;28;20205;-52
2022/12/29 02:59:49;;;;;;;4.18;1.45;;;30.70;49.20;;;;;;4991198;28;20203;-56
2022/12/29 03:02:37;;;;;;;2.67;1.42;;;30.80;49.40;;;;;;4990905;28;20237;-53
2022/12/29 03:05:25;;;;;;;4.65;1.50;;;30.80;49.40;;;;;;4993188;28;20217;-55
2022/12/29 03:08:04;;;;;;;2.88;1.40;;;30.90;49.50;;;;;;4990922;28;20284;-53
2022/12/29 03:10:44;;;;;;;2.75;1.40;;;30.90;49.60;;;;;;4990614;28;20208;-58
2022/12/29 03:16:21;;;;;;;2.88;1.38;;;31.00;50.00;;;;;;5010391;28;20274;-58
2022/12/29 03:19:00;;;;;;;3.53;1.58;;;31.10;50.30;;;;;;5013394;28;20196;-56
2022/12/29 03:24:27;;;;;;;1.85;1.25;;;31.20;50.40;;;;;;5013439;28;20723;-53
2022/12/29 03:27:01;;;;;;;2.88;1.70;;;31.20;50.30;;;;;;5013883;28;20203;-56
2022/12/29 03:29:35;;;;;;;3.65;1.88;;;31.30;50.30;;;;;;5013794;28;20207;-55
2022/12/29 03:32:07;;;;;;;2.80;1.70;;;31.30;50.10;;;;;;5012207;28;20212;-53
2022/12/29 03:34:41;;;;;;;1.98;1.27;;;31.40;50.20;;;;;;5013879;28;20200;-49
2022/12/29 03:37:15;;;;;;;2.22;1.48;;;31.40;50.10;;;;;;5013666;28;20561;-54
2022/12/29 03:39:46;;;;;;;1.55;1.13;;;31.50;50.20;;;;;;5013751;28;20677;-54
2022/12/29 03:42:20;;;;;;;3.00;1.63;;;31.60;50.20;;;;;;5013515;28;20233;-53
2022/12/29 03:44:55;;;;;;;2.42;1.50;;;31.60;50.20;;;;;;5007841;28;20227;-51
2022/12/29 03:47:26;;;;;;;2.50;1.50;;;31.60;50.30;;;;;;4994749;28;20215;-52
2022/12/29 03:49:59;;;;;;;1.85;1.20;;;31.70;49.80;;;;;;5003930;28;20204;-54
2022/12/29 03:52:30;;;;;;;3.78;1.50;;;31.80;49.90;;;;;;4992512;28;20220;-55
2022/12/29 03:55:00;;;;;;;2.92;1.38;;;31.80;50.00;;;;;;4993670;28;20197;-53
2022/12/29 03:57:31;;;;;;;2.40;1.58;;;31.80;50.10;;;;;;4993415;28;20665;-49
2022/12/29 04:00:02;;;;;;;3.30;1.30;;;31.90;50.10;;;;;;4993044;28;20190;-54
2022/12/29 04:02:32;;;;;;;1.75;1.23;;;31.90;50.10;;;;;;5005002;28;20208;-53
2022/12/29 04:05:05;;;;;;;2.05;1.50;;;31.90;50.20;;;;;;4994390;28;20700;-56
2022/12/29 04:07:36;;;;;;;1.80;1.40;;;32.00;50.10;;;;;;4993107;28;20212;-56
2022/12/29 04:10:07;;;;;;;2.50;1.50;;;32.00;49.90;;;;;;4992851;28;20204;-56
2022/12/29 04:12:37;;;;;;;1.63;1.20;;;32.00;49.50;;;;;;5002632;28;20592;-53
2022/12/29 04:15:09;;;;;;;1.30;1.00;;;32.00;49.50;;;;;;5012396;28;20193;-52
2022/12/29 04:17:41;;;;;;;1.90;1.30;;;32.00;50.20;;;;;;5012505;28;20192;-50
2022/12/29 04:23:04;;;;;;;1.60;1.20;;;32.10;49.30;;;;;;5011084;28;20210;-54
2022/12/29 04:25:35;;;;;;;2.72;1.50;;;32.20;49.20;;;;;;5009117;28;20232;-57
2022/12/29 04:28:07;;;;;;;3.10;1.30;;;32.20;49.00;;;;;;5012198;28;20208;-53
2022/12/29 04:30:38;;;;;;;1.45;1.20;;;32.10;48.80;;;;;;5011412;28;20254;-55
2022/12/29 04:33:09;;;;;;;1.77;1.08;;;32.20;48.70;;;;;;5011703;28;20584;-53
2022/12/29 04:35:41;;;;;;;1.35;0.90;;;32.20;48.50;;;;;;5012203;28;20208;-54
2022/12/29 04:38:12;;;;;;;1.85;1.17;;;32.20;47.80;;;;;;5007313;28;20203;-54
2022/12/29 04:40:44;;;;;;;1.20;1.10;;;32.20;47.50;;;;;;4992472;28;20201;-53
2022/12/29 04:43:15;;;;;;;2.03;1.00;;;32.20;47.90;;;;;;5006197;28;20207;-58
2022/12/29 04:45:48;;;;;;;1.17;1.08;;;32.20;47.90;;;;;;5011873;28;20232;-50
2022/12/29 04:48:19;;;;;;;1.83;1.30;;;32.20;47.90;;;;;;5010968;28;20197;-52
2022/12/29 04:50:52;;;;;;;1.38;0.98;;;32.20;47.80;;;;;;5011537;28;20600;-56
2022/12/29 04:53:22;;;;;;;1.90;1.40;;;32.20;48.10;;;;;;5009384;28;20508;-54
2022/12/29 04:55:54;;;;;;;2.17;1.23;;;32.20;48.30;;;;;;5011028;28;20212;-50
2022/12/29 04:58:25;;;;;;;2.65;1.50;;;32.20;48.30;;;;;;5003632;28;20688;-60
2022/12/29 05:00:56;;;;;;;1.95;1.38;;;32.20;48.30;;;;;;5011906;28;20200;-54
2022/12/29 05:03:27;;;;;;;1.60;1.30;;;32.20;48.70;;;;;;5011612;28;20205;-59
2022/12/29 05:06:00;;;;;;;2.60;1.90;;;32.30;48.10;;;;;;5011746;28;20236;-55
2022/12/29 05:08:31;;;;;;;2.80;1.70;;;32.30;47.90;;;;;;5011526;28;20192;-51
2022/12/29 05:11:01;;;;;;;3.53;1.90;;;32.30;48.00;;;;;;5011239;28;20259;-53
2022/12/29 05:13:32;;;;;;;2.97;2.08;;;32.30;48.00;;;;;;5011894;28;20680;-50
2022/12/29 05:16:03;;;;;;;3.58;2.33;;;32.30;46.80;;;;;;5010699;28;20319;-50
2022/12/29 05:18:34;;;;;;;3.72;1.88;;;32.30;46.40;;;;;;5009568;28;20211;-56
2022/12/29 05:21:06;;;;;;;3.17;1.92;;;32.20;46.30;;;;;;4991335;28;20204;-56
2022/12/29 05:23:37;;;;;;;2.95;1.80;;;32.20;46.10;;;;;;4991657;28;20204;-54
2022/12/29 05:26:08;;;;;;;4.35;2.08;;;32.20;46.10;;;;;;4991040;28;20221;-54
2022/12/29 05:28:38;;;;;;;2.92;1.80;;;32.20;46.10;;;;;;4990969;28;20208;-52
2022/12/29 05:31:09;;;;;;;3.45;2.00;;;32.20;46.00;;;;;;4991675;28;20538;-50
2022/12/29 05:33:40;;;;;;;3.05;1.70;;;32.20;46.30;;;;;;5008252;28;20207;-49
2022/12/29 05:36:13;;;;;;;2.67;1.67;;;32.20;46.60;;;;;;4990658;28;20201;-55
2022/12/29 05:38:44;;;;;;;2.67;1.63;;;32.20;46.40;;;;;;4998314;28;20197;-56
2022/12/29 05:41:15;;;;;;;2.28;1.50;;;32.20;46.90;;;;;;4990096;28;20221;-55
2022/12/29 05:43:45;;;;;;;2.47;1.40;;;32.20;46.80;;;;;;5009669;28;20219;-53
2022/12/29 05:46:16;;;;;;;2.65;1.40;;;32.20;46.90;;;;;;5010982;28;20235;-54
2022/12/29 05:48:47;;;;;;;1.80;1.52;;;32.20;46.80;;;;;;5010490;28;20206;-53
2022/12/29 05:51:20;;;;;;;2.78;1.58;;;32.20;46.60;;;;;;5003755;28;20236;-55
2022/12/29 05:53:50;;;;;;;2.58;1.63;;;32.20;46.30;;;;;;5007416;28;20574;-54
2022/12/29 05:56:21;;;;;;;1.83;1.33;;;32.20;46.20;;;;;;5008947;28;20208;-53
2022/12/29 05:58:52;;;;;;;1.88;1.45;;;32.20;46.20;;;;;;5008866;28;20228;-53
2022/12/29 06:01:22;;;;;;;2.58;1.58;;;32.20;45.80;;;;;;4990438;28;20588;-53
2022/12/29 06:03:53;;;;;;;4.18;1.73;;;32.20;45.30;;;;;;4990368;28;20205;-54
2022/12/29 06:06:26;;;;;;;2.40;1.45;;;32.20;44.90;;;;;;4990561;28;20233;-55
2022/12/29 06:08:56;;;;;;;2.45;1.52;;;32.20;44.90;;;;;;4991369;28;20211;-55
2022/12/29 06:11:27;;;;;;;2.20;1.40;;;32.20;44.90;;;;;;4990152;28;20216;-57
2022/12/29 06:13:58;;;;;;;2.35;1.23;;;32.20;44.70;;;;;;4990395;28;20208;-55
2022/12/29 06:16:28;;;;;;;2.03;1.25;;;32.20;44.80;;;;;;4999553;28;20200;-55
2022/12/29 06:18:59;;;;;;;2.05;1.25;;;32.20;45.30;;;;;;5008213;28;20284;-57
2022/12/29 06:21:32;;;;;;;4.13;1.40;;;32.10;45.60;;;;;;4991026;28;20224;-59
2022/12/29 06:24:02;;;;;;;2.58;1.33;;;32.20;45.70;;;;;;4989872;28;20770;-57
2022/12/29 06:26:33;;;;;;;3.00;1.30;;;32.20;45.70;;;;;;4989638;28;20243;-57
2022/12/29 06:29:11;;;;;;;1.63;1.38;;;32.20;45.80;;;;;;4990320;28;20193;-55
2022/12/29 06:31:41;;;;;;;2.20;1.20;;;32.20;45.60;;;;;;4990546;28;20583;-55
2022/12/29 06:34:22;;;;;;;2.03;1.30;;;32.20;45.70;;;;;;5002768;28;20192;-56
2022/12/29 06:36:54;;;;;;;2.45;1.27;;;32.20;45.70;;;;;;5009028;28;20658;-56
2022/12/29 06:39:25;;;;;;;1.90;1.33;;;32.20;45.60;;;;;;5010043;28;20197;-56
2022/12/29 06:41:56;;;;;;;1.73;1.20;;;32.20;45.50;;;;;;5010162;28;20310;-59
2022/12/29 06:44:27;;;;;;;2.47;1.30;;;32.20;45.10;;;;;;5008919;28;20192;-59
2022/12/29 06:46:58;;;;;;;1.77;1.15;;;32.20;45.00;;;;;;5004373;28;20610;-50
2022/12/29 06:49:28;;;;;;;2.42;1.10;;;32.20;44.40;;;;;;5018548;23;20239;-45
2022/12/29 06:52:03;;;;;;;2.55;1.30;;;32.20;44.20;;;;;;5010082;28;20630;-51
2022/12/29 06:54:34;;;;;;;1.00;0.90;;;32.20;44.00;;;;;;5014334;28;20211;-52
2022/12/29 06:57:05;;;;;;;1.75;1.08;;;32.20;44.20;;;;;;5014073;28;20684;-47
2022/12/29 06:59:35;;;;;;;3.25;1.27;;;32.20;44.20;;;;;;5014160;28;20192;-52
2022/12/29 07:02:06;;;;;;;1.80;1.10;;;32.20;44.50;;;;;;5014288;28;20224;-49
2022/12/29 07:04:37;;;;;;;1.30;1.00;;;32.20;44.60;;;;;;5005893;28;20572;-53
2022/12/29 07:07:09;;;;;;;1.58;1.10;;;32.20;44.50;;;;;;5008597;28;20247;-48
2022/12/29 07:09:40;;;;;;;2.13;1.10;;;32.20;44.40;;;;;;5013632;28;20201;-51
2022/12/29 07:12:11;;;;;;;1.80;1.10;;;32.20;44.30;;;;;;5013611;28;20228;-52
2022/12/29 07:14:41;;;;;;;1.90;1.20;;;32.20;44.30;;;;;;5013135;28;20797;-46
2022/12/29 07:17:12;;;;;;;2.25;0.90;;;32.20;44.10;;;;;;5013046;28;20193;-52
2022/12/29 07:19:44;;;;;;;2.10;1.15;;;32.20;44.20;;;;;;5013746;28;20192;-52
2022/12/29 07:22:16;;;;;;;1.80;1.00;;;32.20;44.10;;;;;;5013870;28;20761;-48
2022/12/29 07:24:47;;;;;;;2.45;1.10;;;32.20;43.90;;;;;;5012965;28;20188;-49
2022/12/29 07:27:17;;;;;;;1.45;0.90;;;32.20;43.90;;;;;;5013618;28;20723;-57
2022/12/29 07:29:48;;;;;;;1.50;0.80;;;32.20;43.80;;;;;;5013448;28;20196;-53
2022/12/29 07:32:19;;;;;;;3.53;1.10;;;32.10;43.50;;;;;;5003250;28;20214;-51
2022/12/29 07:34:49;;;;;;;1.25;0.85;;;32.10;43.30;;;;;;5010717;28;20193;-52
2022/12/29 07:37:22;;;;;;;1.80;1.10;;;32.00;43.10;;;;;;4993737;28;20209;-50
2022/12/29 07:39:53;;;;;;;1.63;0.98;;;32.00;42.80;;;;;;4993726;28;20197;-49
2022/12/29 07:42:23;;;;;;;2.38;1.17;;;32.00;42.80;;;;;;5006949;28;20696;-45
2022/12/29 07:44:54;;;;;;;1.75;1.10;;;31.90;42.70;;;;;;5012029;28;20201;-52
2022/12/29 07:50:06;;;;;;;1.17;0.80;;;31.90;42.90;;;;;;4992269;28;20260;-51
2022/12/29 07:52:38;;;;;;;1.58;1.10;;;31.80;43.00;;;;;;4993567;28;20634;-51
2022/12/29 07:55:10;;;;;;;1.67;0.93;;;31.80;43.00;;;;;;4993561;28;20197;-52
2022/12/29 07:57:40;;;;;;;1.98;1.00;;;31.80;42.90;;;;;;4993844;28;20743;-51
2022/12/29 08:00:12;;;;;;;0.80;0.77;;;31.70;42.80;;;;;;4993338;28;20293;-54
2022/12/29 08:02:43;;;;;;;1.15;0.88;;;31.60;42.80;;;;;;4993660;28;20707;-51
2022/12/29 08:05:13;;;;;;;1.60;0.90;;;31.60;42.80;;;;;;4992191;28;20572;-53
2022/12/29 08:07:46;;;;;;;1.10;0.80;;;31.60;42.80;;;;;;4993411;28;20237;-49
2022/12/29 08:10:18;;;;;;;1.38;0.82;;;31.60;42.80;;;;;;4992825;28;20197;-50
2022/12/29 08:12:49;;;;;;;1.67;1.10;;;31.50;42.60;;;;;;5003771;28;20696;-51
2022/12/29 08:15:19;;;;;;;1.52;0.88;;;31.50;42.50;;;;;;5013090;28;20201;-51
2022/12/29 08:17:50;;;;;;;2.47;1.15;;;31.50;42.50;;;;;;5012804;28;20201;-52
2022/12/29 08:20:21;;;;;;;2.10;0.88;;;31.40;42.50;;;;;;5013076;28;20222;-47
2022/12/29 08:22:54;;;;;;;0.85;0.73;;;31.30;42.50;;;;;;5012752;28;20231;-52
2022/12/29 08:25:25;;;;;;;1.38;0.70;;;31.30;42.50;;;;;;5012207;28;20192;-50
2022/12/29 08:27:56;;;;;;;1.20;0.70;;;31.30;42.60;;;;;;5012004;28;20232;-52
2022/12/29 08:30:27;;;;;;;1.65;1.05;;;31.20;42.60;;;;;;5011951;28;20197;-49
2022/12/29 08:32:58;;;;;;;1.05;0.77;;;31.20;42.80;;;;;;5012400;28;20708;-55
2022/12/29 08:35:28;;;;;;;1.20;0.88;;;31.10;42.70;;;;;;5012515;28;20206;-52
2022/12/29 08:38:01;;;;;;;2.03;0.80;;;31.10;42.70;;;;;;5012210;28;20204;-51
2022/12/29 08:40:32;;;;;;;1.15;0.80;;;31.10;42.70;;;;;;5011130;28;20197;-51
2022/12/29 08:43:02;;;;;;;2.08;0.85;;;31.00;42.50;;;;;;5004507;28;20231;-52
2022/12/29 08:45:33;;;;;;;1.58;0.80;;;31.00;42.40;;;;;;5012413;28;20204;-54
2022/12/29 08:48:04;;;;;;;1.67;0.75;;;30.90;42.30;;;;;;5012293;28;20231;-53
2022/12/29 08:53:14;;;;;;;2.38;1.00;;;30.90;42.90;;;;;;5010776;28;20217;-48
2022/12/29 08:55:45;;;;;;;1.58;1.08;;;30.80;42.30;;;;;;5012327;28;20232;-47
2022/12/29 08:58:16;;;;;;;1.40;0.90;;;30.70;42.30;;;;;;5012113;28;20197;-46
2022/12/29 09:00:47;;;;;;;1.73;0.93;;;30.70;42.30;;;;;;5011975;28;20287;-44
2022/12/29 09:03:17;;;;;;;2.03;1.00;;;30.70;42.40;;;;;;5011798;28;20683;-47
2022/12/29 09:05:51;;;;;;;1.20;0.88;;;30.60;42.30;;;;;;5011910;28;20201;-48
2022/12/29 09:08:24;;;;;;;1.50;0.90;;;30.60;42.30;;;;;;5011725;28;20224;-46
2022/12/29 09:10:55;;;;;;;1.38;0.82;;;30.50;42.40;;;;;;5004656;28;20197;-47
2022/12/29 09:13:26;;;;;;;1.40;0.80;;;30.50;42.50;;;;;;5008112;28;20227;-47
2022/12/29 09:16:02;;;;;;;2.45;1.00;;;30.40;42.40;;;;;;5011112;28;20223;-48
2022/12/29 09:18:33;;;;;;;1.50;0.93;;;30.40;42.20;;;;;;5011428;28;20200;-47
2022/12/29 09:21:06;;;;;;;2.65;0.93;;;30.30;42.20;;;;;;5011670;28;20197;-46
2022/12/29 09:23:39;;;;;;;3.28;1.10;;;30.30;42.10;;;;;;5002717;28;20632;-47
2022/12/29 09:26:10;;;;;;;3.28;1.05;;;30.20;42.00;;;;;;5009622;28;20209;-44
2022/12/29 09:28:41;;;;;;;1.27;0.80;;;30.20;42.00;;;;;;5000727;28;20203;-48
2022/12/29 09:31:12;;;;;;;4.07;0.93;;;30.20;42.00;;;;;;4991526;28;20213;-44
2022/12/29 09:33:43;;;;;;;4.53;1.17;;;30.10;42.00;;;;;;4991059;28;20193;-43
2022/12/29 09:36:13;;;;;;;1.63;0.90;;;30.10;42.00;;;;;;4994531;28;20216;-46
2022/12/29 09:38:46;;;;;;;1.45;0.95;;;30.00;42.00;;;;;;5010484;28;20193;-43
2022/12/29 09:41:23;;;;;;;2.50;1.02;;;30.00;42.00;;;;;;5001242;28;20208;-46
2022/12/29 09:44:08;;;;;;;1.73;0.95;;;30.00;42.20;;;;;;4990703;28;20208;-45
2022/12/29 09:46:42;;;;;;;1.67;0.93;;;29.90;42.10;;;;;;4991198;28;20209;-49
2022/12/29 09:49:21;;;;;;;2.15;0.82;;;29.80;42.10;;;;;;4990105;28;20201;-48
2022/12/29 09:51:54;;;;;;;2.17;0.95;;;29.80;42.30;;;;;;4991642;28;20233;-49
2022/12/29 09:54:42;;;;;;;2.90;1.10;;;29.80;42.40;;;;;;5010391;28;20212;-45
2022/12/29 09:57:24;;;;;;;1.40;0.80;;;29.70;42.30;;;;;;5010606;28;20230;-43
2022/12/29 09:59:59;;;;;;;2.15;0.95;;;29.70;42.40;;;;;;5010676;28;20205;-46
2022/12/29 10:02:39;;;;;;;1.40;0.73;;;29.60;42.40;;;;;;5011062;28;20849;-47
2022/12/29 10:05:23;;;;;;;1.30;0.90;;;29.60;42.50;;;;;;5010269;28;20201;-42
2022/12/29 10:08:05;;;;;;;3.35;1.10;;;29.60;42.50;;;;;;5009983;28;20232;-45
2022/12/29 10:10:45;;;;;;;0.73;0.70;;;29.60;42.60;;;;;;5010622;28;20696;-45
2022/12/29 10:13:28;;;;;;;1.45;0.73;;;29.50;42.50;;;;;;5009668;28;20231;-44
2022/12/29 10:16:06;;;;;;;1.85;0.80;;;29.50;42.50;;;;;;5009287;28;20208;-49
2022/12/29 10:19:09;;;;;;;1.05;0.85;;;29.50;42.60;;;;;;4992659;28;20198;-45
2022/12/29 10:21:52;;;;;;;1.58;0.90;;;29.40;42.60;;;;;;4990496;28;20716;-42
2022/12/29 10:24:24;;;;;;;1.60;0.80;;;29.40;42.70;;;;;;5009860;28;20192;-47
2022/12/29 10:26:58;;;;;;;1.63;0.80;;;29.30;42.60;;;;;;5011878;28;20220;-46
2022/12/29 10:29:35;;;;;;;1.40;0.90;;;29.30;42.70;;;;;;5016425;28;20195;-47
2022/12/29 10:32:08;;;;;;;1.58;0.82;;;29.20;42.80;;;;;;5015748;28;20216;-48
2022/12/29 10:34:45;;;;;;;1.63;0.80;;;29.20;42.80;;;;;;5016087;28;20205;-46
2022/12/29 10:37:25;;;;;;;1.02;0.73;;;29.20;42.80;;;;;;5016500;28;20207;-49
2022/12/29 10:39:57;;;;;;;1.52;0.82;;;29.20;42.90;;;;;;5015614;28;20220;-46
2022/12/29 10:42:36;;;;;;;0.77;0.65;;;29.10;42.90;;;;;;5012820;28;20217;-51
2022/12/29 10:45:08;;;;;;;1.10;0.70;;;29.10;43.00;;;;;;5004530;28;20184;-43
2022/12/29 10:47:42;;;;;;;0.90;0.80;;;29.10;43.00;;;;;;5016922;28;20231;-44
2022/12/29 10:50:16;;;;;;;1.00;0.70;;;29.00;43.00;;;;;;5016944;28;20205;-42
2022/12/29 10:52:49;;;;;;;0.93;0.73;;;29.00;43.10;;;;;;5024367;23;20224;-51
2022/12/29 10:55:24;;;;;;;1.67;0.90;;;28.90;43.00;;;;;;4996909;28;20212;-47
2022/12/29 10:57:58;;;;;;;1.27;0.77;;;28.90;42.90;;;;;;4996595;28;20193;-49
2022/12/29 11:00:29;;;;;;;1.40;0.70;;;28.90;43.00;;;;;;4997456;28;20256;-48
2022/12/29 11:03:18;;;;;;;1.55;0.82;;;28.90;43.00;;;;;;4996983;28;20216;-47
2022/12/29 11:05:57;;;;;;;2.20;0.80;;;28.80;43.00;;;;;;4996932;28;20198;-47
2022/12/29 11:08:33;;;;;;;1.77;0.90;;;28.80;43.00;;;;;;4996668;28;20719;-47
2022/12/29 11:11:05;;;;;;;1.45;0.70;;;28.80;43.20;;;;;;4996662;28;20252;-49
2022/12/29 11:13:49;;;;;;;1.45;0.60;;;28.70;43.20;;;;;;5013583;28;20209;-47
2022/12/29 11:16:32;;;;;;;1.23;0.70;;;28.70;43.30;;;;;;5015671;28;20549;-48
2022/12/29 11:19:03;;;;;;;0.80;0.60;;;28.70;43.40;;;;;;5017011;28;20291;-47
2022/12/29 11:21:40;;;;;;;0.75;0.60;;;28.60;43.30;;;;;;5017125;28;20216;-47
2022/12/29 11:24:24;;;;;;;1.30;0.73;;;28.60;43.40;;;;;;5017415;28;20203;-47
2022/12/29 11:26:57;;;;;;;0.80;0.60;;;28.60;43.40;;;;;;5017001;28;20208;-46
2022/12/29 11:29:31;;;;;;;1.38;0.70;;;28.50;43.40;;;;;;5017037;28;20196;-51
2022/12/29 11:32:12;;;;;;;0.73;0.70;;;28.50;44.10;;;;;;5017009;28;20220;-48
2022/12/29 11:34:43;;;;;;;1.30;0.80;;;28.50;43.50;;;;;;5017198;28;20208;-46
2022/12/29 11:37:17;;;;;;;0.98;0.52;;;28.40;43.40;;;;;;5016414;28;20565;-50
2022/12/29 11:39:53;;;;;;;0.95;0.50;;;28.40;43.40;;;;;;5014796;28;20196;-50
2022/12/29 11:42:32;;;;;;;0.77;0.77;;;28.30;43.30;;;;;;5010028;28;20228;-47
2022/12/29 11:45:09;;;;;;;0.95;0.60;;;28.30;43.30;;;;;;5013936;28;20192;-48
2022/12/29 11:47:39;;;;;;;1.17;0.63;;;28.30;43.30;;;;;;5013866;28;20228;-47
2022/12/29 11:50:18;;;;;;;1.35;0.63;;;28.30;43.50;;;;;;5013472;28;20935;-46
2022/12/29 11:52:51;;;;;;;0.60;0.50;;;28.20;43.50;;;;;;5025706;22;20228;-40
2022/12/29 11:55:24;;;;;;;0.73;0.60;;;28.20;43.60;;;;;;5012982;28;20211;-42
2022/12/29 11:57:57;;;;;;;0.60;0.60;;;28.20;43.60;;;;;;5013057;28;20224;-39
2022/12/29 12:00:33;;;;;;;1.02;0.70;;;28.10;43.60;;;;;;5012875;28;20197;-44
2022/12/29 12:03:06;;;;;;;1.10;0.70;;;28.10;43.50;;;;;;5012755;28;20593;-45
2022/12/29 12:05:44;;;;;;;0.73;0.63;;;28.00;43.50;;;;;;5012996;28;20197;-42
2022/12/29 12:08:21;;;;;;;0.57;0.50;;;28.00;43.50;;;;;;5012695;28;20250;-45
2022/12/29 12:10:57;;;;;;;0.85;0.57;;;28.00;43.50;;;;;;5012826;28;20802;-38
2022/12/29 12:13:33;;;;;;;1.08;0.68;;;28.00;43.50;;;;;;5012783;28;20197;-41
2022/12/29 12:16:10;;;;;;;1.58;0.50;;;27.90;43.50;;;;;;5012819;28;20242;-43
2022/12/29 12:18:50;;;;;;;0.88;0.65;;;27.90;43.40;;;;;;5012701;28;20660;-42
2022/12/29 12:21:28;;;;;;;1.02;0.50;;;27.80;43.40;;;;;;5012775;28;20220;-43
2022/12/29 12:24:24;;;;;;;0.50;0.43;;;27.80;43.40;;;;;;5012773;28;20204;-46
2022/12/29 12:27:02;;;;;;;0.50;0.50;;;27.80;43.40;;;;;;5008259;28;20204;-43
2022/12/29 12:29:41;;;;;;;1.05;0.60;;;27.80;43.50;;;;;;5012288;28;20232;-44
2022/12/29 12:32:20;;;;;;;0.95;0.75;;;27.70;43.50;;;;;;5012412;28;20228;-44
2022/12/29 12:34:52;;;;;;;0.57;0.57;;;27.70;43.50;;;;;;5012443;28;20201;-47
2022/12/29 12:37:44;;;;;;;0.47;0.40;;;27.70;43.50;;;;;;5011858;28;20201;-42
2022/12/29 12:40:55;;;;;;;0.50;0.50;;;27.60;43.50;;;;;;5012467;28;20196;-41
2022/12/29 12:43:41;;;;;;;0.77;0.60;;;27.60;43.50;;;;;;4932691;29;20253;-42
2022/12/29 12:46:42;;;;;;;0.70;0.60;;;27.60;43.50;;;;;;5011120;28;20193;-43
2022/12/29 12:49:37;;;;;;;0.57;0.52;;;27.50;43.40;;;;;;5012037;28;20277;-45
2022/12/29 12:52:14;;;;;;;1.05;0.60;;;27.50;43.50;;;;;;5034774;22;20230;-48
2022/12/29 12:55:04;;;;;;;0.60;0.50;;;27.50;43.50;;;;;;5032035;28;20199;-47
2022/12/29 12:57:45;;;;;;;0.70;0.55;;;27.40;43.50;;;;;;5031752;28;20291;-50
2022/12/29 13:00:19;;;;;;;1.00;0.50;;;27.40;43.50;;;;;;5031829;28;20200;-49
2022/12/29 13:03:03;;;;;;;0.60;0.60;;;27.40;43.50;;;;;;5016040;28;20220;-50
2022/12/29 13:05:50;;;;;;;0.63;0.57;;;27.40;43.50;;;;;;5012423;28;20199;-50
2022/12/29 13:08:41;;;;;;;1.05;0.60;;;27.30;43.60;;;;;;5012296;28;20221;-49
2022/12/29 13:11:22;;;;;;;1.35;0.60;;;27.30;43.60;;;;;;5012018;28;20225;-51
2022/12/29 13:14:18;;;;;;;0.70;0.50;;;27.20;43.60;;;;;;4992581;28;20729;-55
2022/12/29 13:16:54;;;;;;;0.80;0.50;;;27.20;43.60;;;;;;4990631;28;20855;-53
2022/12/29 13:19:33;;;;;;;0.68;0.50;;;27.20;43.60;;;;;;4992338;28;20283;-50
2022/12/29 13:22:13;;;;;;;0.52;0.50;;;27.20;43.60;;;;;;4994615;28;20213;-52
2022/12/29 13:24:57;;;;;;;0.60;0.57;;;27.20;43.60;;;;;;4992381;28;20205;-50
2022/12/29 13:27:35;;;;;;;0.57;0.50;;;27.10;43.40;;;;;;4993720;28;20197;-55
2022/12/29 13:30:11;;;;;;;0.60;0.60;;;27.10;43.50;;;;;;5010550;28;20196;-53
2022/12/29 13:32:53;;;;;;;0.80;0.50;;;27.10;43.60;;;;;;5011341;28;20230;-52
2022/12/29 13:35:54;;;;;;;0.40;0.40;;;27.00;43.60;;;;;;5008897;28;20196;-48
2022/12/29 13:38:31;;;;;;;0.40;0.40;;;27.00;43.50;;;;;;5011892;28;20197;-51
2022/12/29 13:41:07;;;;;;;1.02;0.60;;;27.00;43.60;;;;;;5011604;28;20198;-51
2022/12/29 13:43:42;;;;;;;2.10;0.65;;;27.00;43.60;;;;;;5011603;28;20196;-51
2022/12/29 13:46:16;;;;;;;0.65;0.50;;;26.90;43.60;;;;;;5011100;28;20207;-48
2022/12/29 13:48:53;;;;;;;0.88;0.45;;;26.90;43.70;;;;;;5011246;28;20224;-55
2022/12/29 13:51:25;;;;;;;1.20;0.52;;;26.90;43.70;;;;;;5022711;23;20220;-43
2022/12/29 13:54:13;;;;;;;0.63;0.43;;;26.80;43.60;;;;;;5011050;28;20551;-41
2022/12/29 13:56:52;;;;;;;1.33;0.60;;;26.80;43.50;;;;;;5011021;28;20193;-45
2022/12/29 13:59:30;;;;;;;0.50;0.50;;;26.80;43.50;;;;;;5010987;28;20225;-41
2022/12/29 14:02:08;;;;;;;1.63;0.60;;;26.80;43.50;;;;;;5009742;28;20226;-41
2022/12/29 14:04:59;;;;;;;0.50;0.50;;;26.80;43.60;;;;;;5009693;28;20200;-43
2022/12/29 14:07:31;;;;;;;0.40;0.40;;;26.80;43.50;;;;;;5011051;28;20201;-42
2022/12/29 14:10:04;;;;;;;0.60;0.60;;;26.80;43.70;;;;;;5010995;28;20233;-41
2022/12/29 14:12:41;;;;;;;0.40;0.40;;;26.70;43.60;;;;;;5010745;28;20220;-47